Time;durP1;ratioP1;P1;durP2;ratioP2;P2;SDS_P1;SDS_P2;PMS_P1;PMS_P2;Temp;Humidity;BMP_temperature;BMP_pressure;BME280_temperature;BME280_humidity;BME280_pressure;Samples;Min_cycle;Max_cycle;Signal;HPM_P1;HPM_P2
2021/08/18 00:01:14;;;;;;;24.50;21.50;;;15.80;93.20;;;;;;5117439;28;20032;-82
2021/08/18 00:03:40;;;;;;;22.45;20.00;;;15.80;93.20;;;;;;5093778;28;20066;-83
2021/08/18 00:06:06;;;;;;;23.20;19.15;;;15.80;93.20;;;;;;5092813;28;20052;-82
2021/08/18 00:08:32;;;;;;;19.33;17.27;;;15.80;93.30;;;;;;5113220;28;20416;-82
2021/08/18 00:10:59;;;;;;;18.50;16.52;;;15.80;93.30;;;;;;5113228;28;20118;-82
2021/08/18 00:13:25;;;;;;;17.88;15.02;;;15.70;93.30;;;;;;5079026;28;20024;-82
2021/08/18 00:15:52;;;;;;;15.95;13.95;;;15.80;93.30;;;;;;5114449;28;20032;-82
2021/08/18 00:18:17;;;;;;;14.45;12.95;;;15.70;93.30;;;;;;5114025;28;20102;-84
2021/08/18 00:20:43;;;;;;;13.95;12.50;;;15.70;93.30;;;;;;5108714;28;20066;-83
2021/08/18 00:23:09;;;;;;;13.05;11.60;;;15.70;93.30;;;;;;5092665;28;20020;-84
2021/08/18 00:25:35;;;;;;;12.82;9.88;;;15.70;93.20;;;;;;5075769;28;20039;-83
2021/08/18 00:28:01;;;;;;;10.20;9.18;;;15.70;93.20;;;;;;5093477;28;20060;-83
2021/08/18 00:30:27;;;;;;;9.45;8.25;;;15.80;93.20;;;;;;5113929;28;20020;-83
2021/08/18 00:32:53;;;;;;;9.13;7.88;;;15.70;93.10;;;;;;5113099;28;20028;-82
2021/08/18 00:35:20;;;;;;;8.10;7.30;;;15.70;93.10;;;;;;5113800;28;20089;-83
2021/08/18 00:37:46;;;;;;;7.75;7.05;;;15.80;93.10;;;;;;5096179;28;20071;-84
2021/08/18 00:40:12;;;;;;;8.52;7.35;;;15.80;93.00;;;;;;5096367;28;20175;-85
2021/08/18 00:42:40;;;;;;;9.23;7.25;;;15.80;93.00;;;;;;5113163;28;20027;-84
2021/08/18 00:45:06;;;;;;;6.82;6.22;;;15.80;93.00;;;;;;5113096;28;20032;-83
2021/08/18 00:47:44;;;;;;;6.70;5.90;;;15.80;93.00;;;;;;5110502;28;20031;-84
2021/08/18 00:50:14;;;;;;;7.25;6.50;;;15.80;93.00;;;;;;5112798;28;20161;-84
2021/08/18 00:52:40;;;;;;;6.70;6.10;;;15.80;92.90;;;;;;5113769;28;20164;-84
2021/08/18 00:55:11;;;;;;;6.55;6.05;;;15.80;93.00;;;;;;5096986;28;20122;-84
2021/08/18 00:57:37;;;;;;;10.52;6.22;;;15.80;93.00;;;;;;5113146;28;20173;-84
2021/08/18 01:00:05;;;;;;;6.63;6.03;;;15.90;92.90;;;;;;5115101;28;20052;-84
2021/08/18 01:02:31;;;;;;;6.72;6.13;;;15.90;92.90;;;;;;5114822;28;20015;-83
2021/08/18 01:04:57;;;;;;;8.70;7.80;;;15.90;92.90;;;;;;5080024;28;20063;-83
2021/08/18 01:07:23;;;;;;;8.45;7.55;;;15.80;92.80;;;;;;5113335;28;20034;-82
2021/08/18 01:09:48;;;;;;;9.15;8.25;;;15.80;92.90;;;;;;5080485;28;20122;-84
2021/08/18 01:12:14;;;;;;;11.38;10.18;;;15.90;92.90;;;;;;5096713;28;20516;-85
2021/08/18 01:14:40;;;;;;;14.85;12.75;;;15.80;92.90;;;;;;5113715;28;20069;-83
2021/08/18 01:17:07;;;;;;;18.35;15.45;;;15.90;92.90;;;;;;5114316;28;20031;-84
2021/08/18 01:19:33;;;;;;;17.25;15.45;;;15.90;92.90;;;;;;5113436;28;20069;-85
2021/08/18 01:21:59;;;;;;;21.05;16.95;;;15.80;92.90;;;;;;5113157;28;20063;-84
2021/08/18 01:24:25;;;;;;;21.45;18.02;;;15.80;93.00;;;;;;5112639;28;20392;-84
2021/08/18 01:26:50;;;;;;;21.90;19.23;;;15.80;93.00;;;;;;5096107;28;20030;-84
2021/08/18 01:29:16;;;;;;;24.77;20.40;;;15.80;93.00;;;;;;5098464;28;20314;-85
2021/08/18 01:31:42;;;;;;;22.48;19.80;;;15.80;93.00;;;;;;5083690;28;20381;-84
2021/08/18 01:34:08;;;;;;;23.17;20.67;;;15.80;93.10;;;;;;5093218;28;20060;-83
2021/08/18 01:36:34;;;;;;;24.00;20.45;;;15.80;93.10;;;;;;5091573;28;20472;-83
2021/08/18 01:39:05;;;;;;;21.25;18.92;;;15.80;93.10;;;;;;5113300;28;20036;-83
2021/08/18 01:41:31;;;;;;;23.67;19.95;;;15.80;93.10;;;;;;5112789;28;20019;-84
2021/08/18 01:43:56;;;;;;;21.83;19.23;;;15.80;93.10;;;;;;5114292;28;20039;-83
2021/08/18 01:46:22;;;;;;;22.70;19.35;;;15.80;93.10;;;;;;5114120;28;20027;-83
2021/08/18 01:48:48;;;;;;;23.27;19.02;;;15.90;93.10;;;;;;5068634;28;20384;-83
2021/08/18 01:51:14;;;;;;;22.75;19.17;;;15.90;93.10;;;;;;5094135;28;20028;-81
2021/08/18 01:53:42;;;;;;;19.25;17.15;;;15.90;93.10;;;;;;5075634;28;20737;-83
2021/08/18 01:56:09;;;;;;;18.77;16.45;;;15.80;93.10;;;;;;5092336;28;20472;-83
2021/08/18 01:58:35;;;;;;;18.35;16.27;;;15.80;93.10;;;;;;5101435;28;20384;-83
2021/08/18 02:01:03;;;;;;;17.95;16.08;;;15.90;93.10;;;;;;5095215;28;20152;-83
2021/08/18 02:03:28;;;;;;;17.50;15.50;;;15.80;93.10;;;;;;5100037;28;20026;-83
2021/08/18 02:05:54;;;;;;;18.73;16.00;;;15.80;93.10;;;;;;5075862;28;20151;-83
2021/08/18 02:08:20;;;;;;;16.83;15.02;;;15.80;93.10;;;;;;5082812;28;20024;-85
2021/08/18 02:10:46;;;;;;;17.75;15.30;;;15.80;93.10;;;;;;5099888;28;20144;-83
2021/08/18 02:13:12;;;;;;;18.60;16.60;;;15.80;93.10;;;;;;5094520;28;20391;-83
2021/08/18 02:15:38;;;;;;;18.80;16.20;;;15.80;93.10;;;;;;5095167;28;20051;-83
2021/08/18 02:18:05;;;;;;;18.40;15.55;;;15.90;93.20;;;;;;5117657;28;20043;-82
2021/08/18 02:20:33;;;;;;;23.67;17.42;;;15.90;93.20;;;;;;5112015;28;20027;-83
2021/08/18 02:23:00;;;;;;;20.63;18.00;;;15.90;93.20;;;;;;5112165;28;20171;-82
2021/08/18 02:25:26;;;;;;;20.38;17.65;;;15.90;93.20;;;;;;5078025;28;20488;-84
2021/08/18 02:27:52;;;;;;;20.77;17.58;;;15.90;93.20;;;;;;5113292;28;20111;-82
2021/08/18 02:30:23;;;;;;;20.40;17.35;;;15.90;93.20;;;;;;5111907;28;20023;-82
2021/08/18 02:32:49;;;;;;;21.27;17.65;;;16.00;93.20;;;;;;5111683;28;20102;-83
2021/08/18 02:35:15;;;;;;;19.48;17.38;;;16.00;93.20;;;;;;5112999;28;20412;-82
2021/08/18 02:37:42;;;;;;;22.55;18.50;;;16.00;93.20;;;;;;5093318;28;20468;-82
2021/08/18 02:40:09;;;;;;;20.08;17.45;;;16.00;93.20;;;;;;5101656;28;20031;-82
2021/08/18 02:42:35;;;;;;;22.15;17.70;;;16.00;93.20;;;;;;5114048;28;20028;-83
2021/08/18 02:45:01;;;;;;;21.08;18.08;;;16.00;93.20;;;;;;5112584;28;20488;-81
2021/08/18 02:47:27;;;;;;;21.30;17.77;;;16.00;93.30;;;;;;5112020;28;20028;-85
2021/08/18 02:49:53;;;;;;;22.17;17.98;;;16.10;93.20;;;;;;5113494;28;20452;-82
2021/08/18 02:52:19;;;;;;;22.20;18.17;;;16.10;93.20;;;;;;5111998;28;20057;-83
2021/08/18 02:54:45;;;;;;;20.42;18.25;;;16.10;93.20;;;;;;5112016;28;20564;-82
2021/08/18 02:57:10;;;;;;;24.73;19.02;;;16.10;93.20;;;;;;5099267;28;20114;-82
2021/08/18 02:59:36;;;;;;;22.63;19.10;;;16.10;93.20;;;;;;5114664;28;20028;-83
2021/08/18 03:02:02;;;;;;;22.05;19.08;;;16.10;93.20;;;;;;5115986;28;20352;-82
2021/08/18 03:04:28;;;;;;;25.67;19.13;;;16.10;93.20;;;;;;5116455;28;20043;-83
2021/08/18 03:06:54;;;;;;;22.25;18.48;;;16.10;93.20;;;;;;5115470;28;20039;-80
2021/08/18 03:09:22;;;;;;;20.65;18.40;;;16.10;93.20;;;;;;5116434;28;20340;-82
2021/08/18 03:11:48;;;;;;;22.00;18.73;;;16.10;93.20;;;;;;5114923;28;20028;-81
2021/08/18 03:14:13;;;;;;;21.10;18.85;;;16.10;93.20;;;;;;5115951;28;20027;-81
2021/08/18 03:16:39;;;;;;;20.25;17.95;;;16.10;93.20;;;;;;5116146;28;20061;-82
2021/08/18 03:19:05;;;;;;;24.63;19.83;;;16.10;93.20;;;;;;5098144;28;20374;-83
2021/08/18 03:21:30;;;;;;;26.08;20.92;;;16.10;93.20;;;;;;5097870;28;20032;-83
2021/08/18 03:23:56;;;;;;;23.80;20.23;;;16.20;93.20;;;;;;5098206;28;20032;-81
2021/08/18 03:26:21;;;;;;;25.27;21.63;;;16.20;93.20;;;;;;5098193;28;20577;-81
2021/08/18 03:28:47;;;;;;;27.92;22.38;;;16.10;93.20;;;;;;5114875;28;20176;-83
2021/08/18 03:31:13;;;;;;;24.70;21.52;;;16.10;93.20;;;;;;5081475;28;20072;-81
2021/08/18 03:33:38;;;;;;;28.40;20.67;;;16.10;93.20;;;;;;5114670;28;20163;-82
2021/08/18 03:36:04;;;;;;;27.67;22.17;;;16.10;93.20;;;;;;5115676;28;20043;-81
2021/08/18 03:38:30;;;;;;;28.52;23.10;;;16.20;93.20;;;;;;5098149;28;20027;-83
2021/08/18 03:40:56;;;;;;;26.55;21.35;;;16.10;93.20;;;;;;5067152;28;20476;-82
2021/08/18 03:43:22;;;;;;;27.98;22.83;;;16.20;93.40;;;;;;5077585;28;20039;-82
2021/08/18 03:45:48;;;;;;;28.30;21.90;;;16.20;93.20;;;;;;5077085;28;20028;-80
2021/08/18 03:48:13;;;;;;;28.60;22.42;;;16.20;93.20;;;;;;5094419;28;20459;-81
2021/08/18 03:50:39;;;;;;;30.83;23.33;;;16.20;93.20;;;;;;5104567;28;20024;-82
2021/08/18 03:53:05;;;;;;;28.73;24.05;;;16.20;93.20;;;;;;5115193;28;20036;-81
2021/08/18 03:55:31;;;;;;;27.92;23.98;;;16.20;93.30;;;;;;5115803;28;20036;-83
2021/08/18 03:57:56;;;;;;;29.90;22.58;;;16.20;93.30;;;;;;5097497;28;20419;-81
2021/08/18 04:00:22;;;;;;;27.67;22.75;;;16.20;93.30;;;;;;5097697;28;20444;-82
2021/08/18 04:02:48;;;;;;;27.92;23.55;;;16.10;93.30;;;;;;5115655;28;20023;-81
2021/08/18 04:05:14;;;;;;;27.45;23.40;;;16.10;93.30;;;;;;5115617;28;20067;-80
2021/08/18 04:07:41;;;;;;;28.80;23.80;;;16.10;93.30;;;;;;5096472;28;20032;-81
2021/08/18 04:10:07;;;;;;;26.13;22.42;;;16.10;93.30;;;;;;5115700;28;20027;-82
2021/08/18 04:12:52;;;;;;;30.98;24.40;;;16.10;93.30;;;;;;5115145;28;20034;-86
2021/08/18 04:15:18;;;;;;;32.20;26.33;;;16.10;93.30;;;;;;5115407;28;20023;-82
2021/08/18 04:17:43;;;;;;;31.65;25.58;;;16.10;93.30;;;;;;5114898;28;20517;-81
2021/08/18 04:20:09;;;;;;;29.35;24.65;;;16.10;93.30;;;;;;5093791;28;20029;-80
2021/08/18 04:22:35;;;;;;;29.88;24.65;;;16.10;93.40;;;;;;5093831;28;20036;-84
2021/08/18 04:25:00;;;;;;;31.20;25.65;;;16.10;93.30;;;;;;5110382;28;20061;-81
2021/08/18 04:27:26;;;;;;;32.15;25.63;;;16.20;93.40;;;;;;5095081;28;20352;-82
2021/08/18 04:29:52;;;;;;;32.58;26.48;;;16.10;93.30;;;;;;5093736;28;20028;-81
2021/08/18 04:32:17;;;;;;;32.22;26.73;;;16.20;93.40;;;;;;5093374;28;20491;-80
2021/08/18 04:34:43;;;;;;;36.97;27.95;;;16.20;93.40;;;;;;5092624;28;20119;-82
2021/08/18 04:37:10;;;;;;;33.70;26.88;;;16.20;93.40;;;;;;5092724;28;20183;-82
2021/08/18 04:39:36;;;;;;;33.33;26.88;;;16.20;93.40;;;;;;5092272;28;20454;-84
2021/08/18 04:42:01;;;;;;;34.03;28.02;;;16.20;93.40;;;;;;5098693;28;20115;-82
2021/08/18 04:44:27;;;;;;;39.65;29.80;;;16.20;93.40;;;;;;5109152;28;20301;-82
2021/08/18 04:46:52;;;;;;;34.75;28.63;;;16.20;93.40;;;;;;5113247;28;20060;-80
2021/08/18 04:49:18;;;;;;;35.97;28.27;;;16.20;93.40;;;;;;5095108;28;20093;-80
2021/08/18 04:51:44;;;;;;;38.45;29.40;;;16.20;93.40;;;;;;5111384;28;20032;-81
2021/08/18 04:54:09;;;;;;;37.05;29.58;;;16.30;93.40;;;;;;5095185;28;20123;-80
2021/08/18 04:56:35;;;;;;;35.10;28.58;;;16.30;93.40;;;;;;5096461;28;20486;-83
2021/08/18 04:59:00;;;;;;;38.47;31.20;;;16.30;93.40;;;;;;5094685;28;20043;-82
2021/08/18 05:01:26;;;;;;;39.85;31.42;;;16.30;93.40;;;;;;5091877;28;20039;-81
2021/08/18 05:03:52;;;;;;;40.88;30.60;;;16.30;93.40;;;;;;5092367;28;20028;-81
2021/08/18 05:06:17;;;;;;;39.85;30.40;;;16.30;93.40;;;;;;5092105;28;20056;-80
2021/08/18 05:08:43;;;;;;;39.97;32.30;;;16.30;93.40;;;;;;5060685;28;20066;-82
2021/08/18 05:11:08;;;;;;;44.17;33.25;;;16.30;93.40;;;;;;5112914;28;20070;-80
2021/08/18 05:13:34;;;;;;;47.00;32.92;;;16.30;93.40;;;;;;5106121;28;20065;-81
2021/08/18 05:15:59;;;;;;;43.83;33.20;;;16.30;93.40;;;;;;5075362;28;20031;-81
2021/08/18 05:18:25;;;;;;;39.90;31.35;;;16.30;93.40;;;;;;5093384;28;20039;-81
2021/08/18 05:20:51;;;;;;;44.78;34.17;;;16.40;93.40;;;;;;5092265;28;20402;-81
2021/08/18 05:23:16;;;;;;;42.17;33.13;;;16.40;93.40;;;;;;5093315;28;20102;-81
2021/08/18 05:25:42;;;;;;;43.28;33.17;;;16.40;93.40;;;;;;5092374;28;20039;-81
2021/08/18 05:28:10;;;;;;;44.38;33.42;;;16.40;93.30;;;;;;5094454;28;20332;-81
2021/08/18 05:30:35;;;;;;;46.50;36.08;;;16.50;93.50;;;;;;5096261;28;20111;-81
2021/08/18 05:33:01;;;;;;;51.08;37.22;;;16.50;93.30;;;;;;5112274;28;20127;-82
2021/08/18 05:35:27;;;;;;;49.85;37.95;;;16.50;93.30;;;;;;5114343;28;20032;-80
2021/08/18 05:37:53;;;;;;;48.80;35.90;;;16.50;93.30;;;;;;5112072;28;20035;-80
2021/08/18 05:40:18;;;;;;;47.63;36.45;;;16.50;93.30;;;;;;5091514;28;20027;-80
2021/08/18 05:42:44;;;;;;;46.55;34.88;;;16.60;93.30;;;;;;5092441;28;20035;-81
2021/08/18 05:45:10;;;;;;;44.75;34.75;;;16.60;93.20;;;;;;5092197;28;20456;-81
2021/08/18 05:47:35;;;;;;;49.78;36.47;;;16.70;93.20;;;;;;5094580;28;20487;-80
2021/08/18 05:50:01;;;;;;;49.30;37.45;;;16.80;93.10;;;;;;5095168;28;20169;-79
2021/08/18 05:52:27;;;;;;;45.50;34.15;;;16.80;93.10;;;;;;5111384;28;20023;-80
2021/08/18 05:54:53;;;;;;;48.25;37.30;;;16.80;93.00;;;;;;5070445;28;20109;-80
2021/08/18 05:57:18;;;;;;;47.05;36.40;;;16.90;92.90;;;;;;5102403;28;20040;-81
2021/08/18 05:59:44;;;;;;;47.10;36.38;;;17.00;92.90;;;;;;5101958;28;20040;-81
2021/08/18 06:02:10;;;;;;;46.15;37.17;;;17.10;92.80;;;;;;5076357;28;20132;-80
2021/08/18 06:04:35;;;;;;;44.97;34.95;;;17.10;92.80;;;;;;5091393;28;20063;-81
2021/08/18 06:07:01;;;;;;;45.40;34.67;;;17.10;92.70;;;;;;5075355;28;20043;-83
2021/08/18 06:09:27;;;;;;;48.28;36.30;;;17.20;92.70;;;;;;5095092;28;20044;-80
2021/08/18 06:11:52;;;;;;;45.67;36.22;;;17.20;92.60;;;;;;5112184;28;20103;-81
2021/08/18 06:14:18;;;;;;;46.78;35.42;;;17.20;92.60;;;;;;5092090;28;20054;-79
2021/08/18 06:16:44;;;;;;;49.00;39.13;;;17.10;92.50;;;;;;5091614;28;20036;-80
2021/08/18 06:19:09;;;;;;;48.03;37.15;;;17.20;92.50;;;;;;5091474;28;20028;-81
2021/08/18 06:21:35;;;;;;;48.05;37.30;;;17.20;92.50;;;;;;5074943;28;20478;-80
2021/08/18 06:24:13;;;;;;;43.60;34.15;;;17.20;92.50;;;;;;5086030;28;20107;-81
2021/08/18 06:26:38;;;;;;;45.42;37.22;;;17.20;92.50;;;;;;5077669;28;20028;-82
2021/08/18 06:29:04;;;;;;;46.33;35.70;;;17.30;92.50;;;;;;5096610;28;20516;-81
2021/08/18 06:31:30;;;;;;;43.83;35.38;;;17.30;92.40;;;;;;5079310;28;20028;-80
2021/08/18 06:33:55;;;;;;;45.00;35.22;;;17.40;92.40;;;;;;5118911;28;20035;-81
2021/08/18 06:36:21;;;;;;;42.38;34.63;;;17.40;92.40;;;;;;5092948;28;20131;-80
2021/08/18 06:38:46;;;;;;;45.28;35.40;;;17.50;92.30;;;;;;5075701;28;20032;-79
2021/08/18 06:41:12;;;;;;;41.33;34.03;;;17.50;92.20;;;;;;5104522;28;20024;-81
2021/08/18 06:43:38;;;;;;;43.85;34.97;;;17.60;92.20;;;;;;5112149;28;20032;-81
2021/08/18 06:46:04;;;;;;;40.67;32.95;;;17.60;92.10;;;;;;5094942;28;20040;-80
2021/08/18 06:48:30;;;;;;;41.05;32.53;;;17.70;92.10;;;;;;5112385;28;20050;-80
2021/08/18 06:50:55;;;;;;;43.63;33.08;;;17.80;92.00;;;;;;5094253;28;20397;-80
2021/08/18 06:53:21;;;;;;;40.53;33.53;;;17.90;91.90;;;;;;5095214;28;20118;-79
2021/08/18 06:55:47;;;;;;;40.17;33.13;;;18.00;91.80;;;;;;5092347;28;20468;-81
2021/08/18 06:58:12;;;;;;;38.92;31.75;;;18.10;91.60;;;;;;5091021;28;20024;-80
2021/08/18 07:00:38;;;;;;;39.97;32.10;;;18.20;91.50;;;;;;5091567;28;20047;-80
2021/08/18 07:03:04;;;;;;;37.03;30.95;;;18.30;91.40;;;;;;5090841;28;20376;-83
2021/08/18 07:05:34;;;;;;;40.20;33.15;;;18.50;91.20;;;;;;5089810;28;20044;-80
2021/08/18 07:07:59;;;;;;;37.78;31.13;;;18.70;91.00;;;;;;5091771;28;20027;-80
2021/08/18 07:10:25;;;;;;;38.58;31.10;;;18.80;90.80;;;;;;5103364;28;21825;-80
2021/08/18 07:12:51;;;;;;;33.80;30.15;;;18.80;90.70;;;;;;5094668;28;20080;-80
2021/08/18 07:15:16;;;;;;;34.13;28.05;;;18.80;90.50;;;;;;5108626;28;20043;-80
2021/08/18 07:17:42;;;;;;;33.45;27.88;;;18.80;90.50;;;;;;5069007;28;20035;-80
2021/08/18 07:20:08;;;;;;;31.50;27.55;;;18.70;90.40;;;;;;5084185;28;20039;-80
2021/08/18 07:22:34;;;;;;;32.13;28.00;;;18.70;90.40;;;;;;5083237;28;20069;-82
2021/08/18 07:25:00;;;;;;;29.38;25.77;;;18.60;90.50;;;;;;5090377;28;20464;-83
2021/08/18 07:27:27;;;;;;;25.73;23.02;;;18.70;90.60;;;;;;5111573;28;20028;-80
2021/08/18 07:29:54;;;;;;;26.80;23.33;;;18.70;90.50;;;;;;5111429;28;20055;-81
2021/08/18 07:32:20;;;;;;;26.33;23.38;;;18.60;90.50;;;;;;5072001;28;20543;-82
2021/08/18 07:34:45;;;;;;;23.52;21.02;;;18.60;90.50;;;;;;5081744;28;20123;-81
2021/08/18 07:37:11;;;;;;;24.30;21.80;;;18.60;90.40;;;;;;5097340;28;20062;-81
2021/08/18 07:39:37;;;;;;;23.48;21.05;;;18.50;90.40;;;;;;5065754;28;20391;-79
2021/08/18 07:42:02;;;;;;;22.70;20.10;;;18.40;90.50;;;;;;5104858;28;20057;-83
2021/08/18 07:44:28;;;;;;;22.00;19.67;;;18.40;90.50;;;;;;5113825;28;20049;-83
2021/08/18 07:46:54;;;;;;;23.27;19.40;;;18.30;90.60;;;;;;5115368;28;20127;-80
2021/08/18 07:49:19;;;;;;;20.40;18.30;;;18.20;90.60;;;;;;5113980;28;20802;-81
2021/08/18 07:51:45;;;;;;;19.33;17.30;;;18.30;90.70;;;;;;5114330;28;20467;-81
2021/08/18 07:54:11;;;;;;;22.50;18.80;;;18.30;90.60;;;;;;5112670;28;20475;-82
2021/08/18 07:56:36;;;;;;;20.88;17.13;;;18.40;90.60;;;;;;5113870;28;20114;-80
2021/08/18 07:59:02;;;;;;;16.60;15.00;;;18.50;90.50;;;;;;5109799;28;20036;-85
2021/08/18 08:01:27;;;;;;;16.08;14.43;;;18.50;90.40;;;;;;5096830;28;20039;-82
2021/08/18 08:03:53;;;;;;;14.48;13.07;;;18.50;90.30;;;;;;5093735;28;20032;-81
2021/08/18 08:06:19;;;;;;;14.65;13.15;;;18.50;90.20;;;;;;5115989;28;20070;-81
2021/08/18 08:08:44;;;;;;;12.35;11.25;;;18.50;90.20;;;;;;5099894;28;20034;-82
2021/08/18 08:11:10;;;;;;;11.68;10.68;;;18.50;90.10;;;;;;5116416;28;20036;-82
2021/08/18 08:13:36;;;;;;;11.18;10.18;;;18.40;90.10;;;;;;5081181;28;20110;-82
2021/08/18 08:16:02;;;;;;;11.82;10.73;;;18.50;90.20;;;;;;5096430;28;20040;-84
2021/08/18 08:18:28;;;;;;;11.57;10.48;;;18.60;90.00;;;;;;5096930;28;20027;-82
2021/08/18 08:20:53;;;;;;;10.32;9.35;;;18.70;89.90;;;;;;5095764;28;20027;-82
2021/08/18 08:23:19;;;;;;;7.88;7.18;;;18.80;89.60;;;;;;5108008;28;20479;-81
2021/08/18 08:25:45;;;;;;;8.43;7.72;;;18.90;89.10;;;;;;5100767;27;20039;-82
2021/08/18 08:28:11;;;;;;;9.93;9.07;;;19.00;88.50;;;;;;5101247;28;20031;-83
2021/08/18 08:30:37;;;;;;;8.63;7.93;;;19.20;88.10;;;;;;5088837;28;20039;-82
2021/08/18 08:33:02;;;;;;;8.68;7.88;;;19.30;88.00;;;;;;5105611;28;20520;-83
2021/08/18 08:35:29;;;;;;;7.15;6.55;;;19.40;87.60;;;;;;5074010;28;20498;-81
2021/08/18 08:37:55;;;;;;;6.82;6.13;;;19.50;87.00;;;;;;5112927;28;20027;-81
2021/08/18 08:40:21;;;;;;;6.75;6.15;;;19.50;87.00;;;;;;5106911;28;20097;-80
2021/08/18 08:42:48;;;;;;;6.45;5.85;;;19.60;86.60;;;;;;5093478;28;20028;-81
2021/08/18 08:45:15;;;;;;;5.75;5.25;;;19.60;86.00;;;;;;5093238;28;20028;-80
2021/08/18 08:47:41;;;;;;;5.15;4.65;;;19.70;85.50;;;;;;5080455;28;20032;-79
2021/08/18 08:50:10;;;;;;;3.38;3.08;;;19.70;85.10;;;;;;5114565;28;20024;-83
2021/08/18 08:52:36;;;;;;;4.20;3.22;;;19.70;84.50;;;;;;5114065;28;20020;-81
2021/08/18 08:55:03;;;;;;;2.25;1.90;;;19.70;83.80;;;;;;5096496;28;20035;-81
2021/08/18 08:57:29;;;;;;;2.20;1.52;;;19.70;83.10;;;;;;5112370;28;20592;-82
2021/08/18 08:59:55;;;;;;;2.55;1.25;;;19.60;82.50;;;;;;5113605;28;20040;-80
2021/08/18 09:02:21;;;;;;;1.23;0.95;;;19.60;82.50;;;;;;5113376;28;20467;-81
2021/08/18 09:04:48;;;;;;;1.25;0.88;;;19.60;82.20;;;;;;5111901;27;20069;-80
2021/08/18 09:07:23;;;;;;;1.70;0.88;;;19.60;81.80;;;;;;5096405;28;20036;-81
2021/08/18 09:09:55;;;;;;;1.10;0.80;;;19.70;81.80;;;;;;5113847;28;20076;-81
2021/08/18 09:12:32;;;;;;;1.40;0.95;;;19.70;81.40;;;;;;5106305;28;20030;-82
2021/08/18 09:15:22;;;;;;;2.30;0.95;;;19.70;81.30;;;;;;5113050;28;20077;-80
2021/08/18 09:17:50;;;;;;;1.33;0.98;;;19.70;81.40;;;;;;5111991;28;20034;-80
2021/08/18 09:20:24;;;;;;;2.25;0.70;;;19.70;81.40;;;;;;5108923;28;20483;-80
2021/08/18 09:22:53;;;;;;;1.42;0.70;;;19.80;81.60;;;;;;5105201;28;20035;-79
2021/08/18 09:25:28;;;;;;;1.55;0.65;;;19.90;80.90;;;;;;5111488;28;20032;-79
2021/08/18 09:27:55;;;;;;;1.55;0.82;;;19.90;80.40;;;;;;5104233;28;20500;-81
2021/08/18 09:30:26;;;;;;;1.08;0.70;;;19.90;80.10;;;;;;5112377;28;20486;-79
2021/08/18 09:32:54;;;;;;;1.15;0.80;;;19.90;80.30;;;;;;5112487;28;20026;-81
2021/08/18 09:35:21;;;;;;;1.13;0.82;;;19.90;80.60;;;;;;5104245;28;20062;-81
2021/08/18 09:37:59;;;;;;;2.30;1.10;;;19.80;80.70;;;;;;5076154;28;20028;-79
2021/08/18 09:40:31;;;;;;;1.33;0.88;;;19.90;81.00;;;;;;5111091;28;20086;-79
2021/08/18 09:43:11;;;;;;;;;;;19.90;81.20;;;;;;5111908;28;20031;-80
2021/08/18 09:45:39;;;;;;;2.35;0.90;;;19.80;80.70;;;;;;5112650;28;19910;-80
2021/08/18 09:48:15;;;;;;;1.45;0.80;;;19.70;81.10;;;;;;5110826;28;20142;-81
2021/08/18 09:50:50;;;;;;;1.27;0.50;;;19.70;81.40;;;;;;5111792;28;20061;-80
2021/08/18 09:53:19;;;;;;;1.10;0.85;;;19.70;81.40;;;;;;5112323;28;20024;-82
2021/08/18 09:56:05;;;;;;;2.58;0.68;;;19.60;81.50;;;;;;5109095;28;20125;-81
2021/08/18 09:58:32;;;;;;;1.13;0.70;;;19.50;81.90;;;;;;5112116;28;20027;-79
2021/08/18 10:01:00;;;;;;;1.33;0.80;;;19.40;82.50;;;;;;5113431;28;20024;-79
2021/08/18 10:03:27;;;;;;;1.45;0.68;;;19.30;82.80;;;;;;5113023;28;20418;-79
2021/08/18 10:05:55;;;;;;;1.23;0.70;;;19.40;82.80;;;;;;5103807;28;20055;-80
2021/08/18 10:08:21;;;;;;;1.55;0.75;;;19.50;82.90;;;;;;5111722;28;20032;-80
2021/08/18 10:10:47;;;;;;;0.95;0.70;;;19.60;82.50;;;;;;5112582;27;20471;-79
2021/08/18 10:13:14;;;;;;;1.95;0.70;;;19.90;81.80;;;;;;5113659;28;20478;-80
2021/08/18 10:15:40;;;;;;;1.25;0.90;;;20.10;80.80;;;;;;5110777;28;20020;-80
2021/08/18 10:18:08;;;;;;;1.20;1.02;;;20.30;80.20;;;;;;5111903;28;20471;-79
2021/08/18 10:20:35;;;;;;;1.10;0.68;;;20.30;79.80;;;;;;5093765;28;20036;-81
2021/08/18 10:23:12;;;;;;;1.63;0.73;;;20.40;79.60;;;;;;5108644;28;20065;-81
2021/08/18 10:25:45;;;;;;;0.90;0.60;;;20.50;79.40;;;;;;5107156;28;20019;-80
2021/08/18 10:28:12;;;;;;;0.98;0.70;;;20.50;78.90;;;;;;5110542;28;20024;-80
2021/08/18 10:30:48;;;;;;;1.77;0.65;;;20.40;78.40;;;;;;5109193;28;20082;-81
2021/08/18 10:33:53;;;;;;;0.85;0.57;;;20.40;78.60;;;;;;5108634;28;20447;-81
2021/08/18 10:36:40;;;;;;;1.38;0.80;;;20.50;78.40;;;;;;5105896;28;20035;-87
2021/08/18 10:39:18;;;;;;;1.52;0.73;;;20.60;78.30;;;;;;5111880;28;20027;-82
2021/08/18 10:42:17;;;;;;;2.75;0.90;;;20.60;78.10;;;;;;5110157;28;20468;-79
2021/08/18 10:44:51;;;;;;;2.22;1.00;;;20.80;77.70;;;;;;5105162;28;20130;-81
2021/08/18 10:47:17;;;;;;;1.65;0.80;;;20.80;77.20;;;;;;5101156;28;20176;-81
2021/08/18 10:49:44;;;;;;;1.45;0.98;;;20.90;77.40;;;;;;5104174;28;20538;-79
2021/08/18 10:52:10;;;;;;;1.65;0.90;;;21.10;77.00;;;;;;5100384;28;20035;-82
2021/08/18 10:54:40;;;;;;;2.20;1.00;;;21.30;76.30;;;;;;5086117;28;20035;-84
2021/08/18 10:57:38;;;;;;;1.33;1.00;;;21.30;75.20;;;;;;5090280;28;20136;-79
2021/08/18 11:00:16;;;;;;;2.92;1.23;;;21.30;75.00;;;;;;5108795;28;20102;-78
2021/08/18 11:02:53;;;;;;;2.22;2.03;;;21.50;75.80;;;;;;5108153;28;20110;-80
2021/08/18 11:05:22;;;;;;;3.65;3.35;;;21.90;75.30;;;;;;5104422;28;20051;-82
2021/08/18 11:08:02;;;;;;;5.50;5.00;;;22.30;74.50;;;;;;5098032;28;20030;-80
2021/08/18 11:10:29;;;;;;;5.93;5.40;;;22.70;73.20;;;;;;5110434;28;20023;-78
2021/08/18 11:12:56;;;;;;;6.38;5.78;;;23.00;73.20;;;;;;5112330;28;20035;-78
2021/08/18 11:15:21;;;;;;;6.43;5.90;;;23.20;72.40;;;;;;5110869;28;20024;-80
2021/08/18 11:17:49;;;;;;;6.00;5.50;;;23.30;71.80;;;;;;5112554;28;20035;-79
2021/08/18 11:20:24;;;;;;;5.97;5.50;;;23.30;72.00;;;;;;5098836;28;20028;-79
2021/08/18 11:22:53;;;;;;;6.95;6.35;;;23.40;71.90;;;;;;5106322;28;20576;-79
2021/08/18 11:25:19;;;;;;;7.13;6.53;;;23.40;71.90;;;;;;5101731;28;20468;-80
2021/08/18 11:27:53;;;;;;;7.35;6.57;;;23.40;71.80;;;;;;5092693;28;20027;-78
2021/08/18 11:30:32;;;;;;;6.95;6.25;;;23.30;72.10;;;;;;5097080;28;20067;-80
2021/08/18 11:33:18;;;;;;;6.90;6.32;;;23.20;72.50;;;;;;5107590;28;20059;-79
2021/08/18 11:35:43;;;;;;;7.07;6.53;;;22.90;72.80;;;;;;5111888;28;20027;-80
2021/08/18 11:38:10;;;;;;;7.88;6.53;;;22.70;73.50;;;;;;5100493;28;20036;-79
2021/08/18 11:40:36;;;;;;;8.13;7.43;;;22.60;74.00;;;;;;5095821;28;20024;-81
2021/08/18 11:43:03;;;;;;;7.43;6.60;;;22.60;74.10;;;;;;5095716;28;20024;-78
2021/08/18 11:45:29;;;;;;;8.20;7.50;;;22.60;73.90;;;;;;5110513;27;20024;-83
2021/08/18 11:48:05;;;;;;;8.32;7.63;;;22.60;73.90;;;;;;5093884;28;20032;-78
2021/08/18 11:50:31;;;;;;;9.70;8.80;;;22.80;74.00;;;;;;5096417;28;20020;-83
2021/08/18 11:53:02;;;;;;;8.32;7.45;;;22.90;73.20;;;;;;5107195;28;20030;-79
2021/08/18 11:55:29;;;;;;;7.25;6.68;;;23.00;73.30;;;;;;5085566;28;20114;-83
2021/08/18 11:58:04;;;;;;;7.07;6.38;;;23.10;72.80;;;;;;5104497;28;20031;-79
2021/08/18 12:00:31;;;;;;;7.38;6.78;;;23.10;72.60;;;;;;5107615;28;20032;-82
2021/08/18 12:03:01;;;;;;;7.35;6.80;;;23.20;72.80;;;;;;5099664;28;20024;-80
2021/08/18 12:05:29;;;;;;;7.63;6.93;;;23.10;72.70;;;;;;5107980;28;20052;-79
2021/08/18 12:08:14;;;;;;;7.97;7.28;;;22.90;72.20;;;;;;5107320;28;20561;-80
2021/08/18 12:10:42;;;;;;;7.15;6.55;;;22.40;73.30;;;;;;5106065;27;20069;-77
2021/08/18 12:13:28;;;;;;;8.02;6.47;;;22.10;74.50;;;;;;5102611;28;20028;-79
2021/08/18 12:15:55;;;;;;;7.43;6.72;;;21.90;75.40;;;;;;5102973;28;20444;-79
2021/08/18 12:18:37;;;;;;;7.55;6.95;;;21.70;76.10;;;;;;5104171;28;20464;-79
2021/08/18 12:21:19;;;;;;;8.05;7.35;;;21.60;76.90;;;;;;5112156;28;20123;-80
2021/08/18 12:23:47;;;;;;;8.30;7.50;;;21.40;77.70;;;;;;5110513;28;20548;-80
2021/08/18 12:26:32;;;;;;;9.10;8.30;;;21.40;78.10;;;;;;5104568;28;20076;-81
2021/08/18 12:29:01;;;;;;;9.50;8.60;;;21.40;78.50;;;;;;5110448;28;20023;-78
2021/08/18 12:31:47;;;;;;;9.45;8.55;;;21.40;78.40;;;;;;5113771;28;20043;-80
2021/08/18 12:34:13;;;;;;;10.57;8.57;;;21.30;78.00;;;;;;5109618;28;20027;-79
2021/08/18 12:36:38;;;;;;;9.25;7.82;;;21.50;77.10;;;;;;5089532;28;20463;-79
2021/08/18 12:39:05;;;;;;;8.93;7.93;;;21.60;76.60;;;;;;5115628;28;20028;-79